Westover, Alabama
Current Conditions -  °F | °C
As of 11:53 AM on Friday 21 Nov 2014 (Local Time) from KEET Reporting Station
Clear Clear  
Wind Chill: 63°   Ceiling: Unl
Heat Index: 63°   Visibility: 10mi
Dew Point: 44°   Wind: 5mph
Humidity: 50%   Direction: NA
Pressure: 30.36"   Gusts: NA
Location:  33.35°N, 86.54°W
Report Text: KEET 211753Z AUTO VRB04KT 10SM CLR 17/07 A3036 RMK AO2 SLP278 T01720067 10172 20056 58013
Loading
Personal Weather Stations






























Interactive Weather Map New forecast layout! Learn more

10-Day Weather Forecast

Advertisements
Track Severe Weather on mobile